sensor_id;sensor_type;location;lat;lon;timestamp;P1;durP1;ratioP1;P2;durP2;ratioP2
11139;SDS011;5624;49.388;11.350;2022-09-24T00:03:38;6.60;;;4.07;;
11139;SDS011;5624;49.388;11.350;2022-09-24T00:06:06;4.53;;;3.70;;
11139;SDS011;5624;49.388;11.350;2022-09-24T00:08:34;5.03;;;3.97;;
11139;SDS011;5624;49.388;11.350;2022-09-24T00:11:01;4.77;;;3.80;;
11139;SDS011;5624;49.388;11.350;2022-09-24T00:13:30;6.57;;;4.27;;
11139;SDS011;5624;49.388;11.350;2022-09-24T00:16:00;5.83;;;4.50;;
11139;SDS011;5624;49.388;11.350;2022-09-24T00:18:28;5.13;;;4.33;;
11139;SDS011;5624;49.388;11.350;2022-09-24T00:20:55;5.63;;;4.70;;
11139;SDS011;5624;49.388;11.350;2022-09-24T00:23:21;4.33;;;3.90;;
11139;SDS011;5624;49.388;11.350;2022-09-24T00:25:49;5.10;;;4.17;;
11139;SDS011;5624;49.388;11.350;2022-09-24T00:28:53;5.40;;;4.70;;
11139;SDS011;5624;49.388;11.350;2022-09-24T00:31:19;6.40;;;4.37;;
11139;SDS011;5624;49.388;11.350;2022-09-24T00:33:45;5.20;;;4.17;;
11139;SDS011;5624;49.388;11.350;2022-09-24T00:36:10;5.50;;;3.90;;
11139;SDS011;5624;49.388;11.350;2022-09-24T00:38:39;5.07;;;4.00;;
11139;SDS011;5624;49.388;11.350;2022-09-24T00:41:06;6.90;;;4.33;;
11139;SDS011;5624;49.388;11.350;2022-09-24T00:43:33;5.83;;;3.93;;
11139;SDS011;5624;49.388;11.350;2022-09-24T00:48:51;6.07;;;4.70;;
11139;SDS011;5624;49.388;11.350;2022-09-24T00:51:30;7.27;;;4.20;;
11139;SDS011;5624;49.388;11.350;2022-09-24T00:54:03;5.20;;;3.67;;
11139;SDS011;5624;49.388;11.350;2022-09-24T00:56:35;5.27;;;4.13;;
11139;SDS011;5624;49.388;11.350;2022-09-24T00:59:04;6.37;;;4.27;;
11139;SDS011;5624;49.388;11.350;2022-09-24T01:01:33;4.77;;;4.07;;
11139;SDS011;5624;49.388;11.350;2022-09-24T01:03:59;5.03;;;4.13;;
11139;SDS011;5624;49.388;11.350;2022-09-24T01:06:29;4.77;;;4.03;;
11139;SDS011;5624;49.388;11.350;2022-09-24T01:08:57;6.13;;;4.17;;
11139;SDS011;5624;49.388;11.350;2022-09-24T01:25:48;4.90;;;4.27;;
11139;SDS011;5624;49.388;11.350;2022-09-24T01:28:30;4.23;;;3.70;;
11139;SDS011;5624;49.388;11.350;2022-09-24T01:30:59;5.90;;;4.20;;
11139;SDS011;5624;49.388;11.350;2022-09-24T01:33:32;5.87;;;4.20;;
11139;SDS011;5624;49.388;11.350;2022-09-24T01:36:01;5.83;;;3.53;;
11139;SDS011;5624;49.388;11.350;2022-09-24T01:38:37;5.77;;;3.70;;
11139;SDS011;5624;49.388;11.350;2022-09-24T01:41:06;5.07;;;3.37;;
11139;SDS011;5624;49.388;11.350;2022-09-24T01:43:35;5.73;;;3.90;;
11139;SDS011;5624;49.388;11.350;2022-09-24T01:46:03;4.83;;;3.53;;
11139;SDS011;5624;49.388;11.350;2022-09-24T01:48:31;3.80;;;3.40;;
11139;SDS011;5624;49.388;11.350;2022-09-24T01:51:09;6.37;;;3.80;;
11139;SDS011;5624;49.388;11.350;2022-09-24T01:53:45;4.10;;;3.40;;
11139;SDS011;5624;49.388;11.350;2022-09-24T01:56:20;5.77;;;3.93;;
11139;SDS011;5624;49.388;11.350;2022-09-24T01:58:55;5.63;;;4.17;;
11139;SDS011;5624;49.388;11.350;2022-09-24T02:01:41;6.47;;;4.07;;
11139;SDS011;5624;49.388;11.350;2022-09-24T02:04:13;5.30;;;3.33;;
11139;SDS011;5624;49.388;11.350;2022-09-24T02:06:44;5.37;;;3.97;;
11139;SDS011;5624;49.388;11.350;2022-09-24T02:12:09;4.13;;;3.30;;
11139;SDS011;5624;49.388;11.350;2022-09-24T02:14:43;4.53;;;3.77;;
11139;SDS011;5624;49.388;11.350;2022-09-24T02:17:13;4.53;;;4.13;;
11139;SDS011;5624;49.388;11.350;2022-09-24T02:19:40;3.83;;;3.40;;
11139;SDS011;5624;49.388;11.350;2022-09-24T02:22:08;5.60;;;3.93;;
11139;SDS011;5624;49.388;11.350;2022-09-24T02:24:47;4.97;;;4.37;;
11139;SDS011;5624;49.388;11.350;2022-09-24T02:27:16;4.53;;;3.77;;
11139;SDS011;5624;49.388;11.350;2022-09-24T02:29:43;5.80;;;4.30;;
11139;SDS011;5624;49.388;11.350;2022-09-24T02:32:10;4.67;;;3.73;;
11139;SDS011;5624;49.388;11.350;2022-09-24T02:34:40;4.90;;;4.17;;
11139;SDS011;5624;49.388;11.350;2022-09-24T02:37:11;5.60;;;4.30;;
11139;SDS011;5624;49.388;11.350;2022-09-24T02:39:40;4.80;;;4.07;;
11139;SDS011;5624;49.388;11.350;2022-09-24T02:42:08;5.00;;;3.60;;
11139;SDS011;5624;49.388;11.350;2022-09-24T02:44:37;5.20;;;4.33;;
11139;SDS011;5624;49.388;11.350;2022-09-24T02:47:03;5.20;;;4.27;;
11139;SDS011;5624;49.388;11.350;2022-09-24T02:49:29;4.77;;;4.20;;
11139;SDS011;5624;49.388;11.350;2022-09-24T02:51:55;6.27;;;4.50;;
11139;SDS011;5624;49.388;11.350;2022-09-24T02:54:21;5.90;;;4.10;;
11139;SDS011;5624;49.388;11.350;2022-09-24T02:56:48;5.77;;;4.73;;
11139;SDS011;5624;49.388;11.350;2022-09-24T02:59:17;5.67;;;4.60;;
11139;SDS011;5624;49.388;11.350;2022-09-24T03:01:44;7.20;;;4.90;;
11139;SDS011;5624;49.388;11.350;2022-09-24T03:04:11;8.37;;;4.80;;
11139;SDS011;5624;49.388;11.350;2022-09-24T03:06:38;6.50;;;5.07;;
11139;SDS011;5624;49.388;11.350;2022-09-24T03:09:04;6.00;;;4.57;;
11139;SDS011;5624;49.388;11.350;2022-09-24T03:11:30;5.23;;;4.60;;
11139;SDS011;5624;49.388;11.350;2022-09-24T03:13:57;5.57;;;4.43;;
11139;SDS011;5624;49.388;11.350;2022-09-24T03:16:24;6.40;;;4.13;;
11139;SDS011;5624;49.388;11.350;2022-09-24T03:18:50;7.10;;;4.17;;
11139;SDS011;5624;49.388;11.350;2022-09-24T03:21:17;7.47;;;5.27;;
11139;SDS011;5624;49.388;11.350;2022-09-24T03:23:44;4.73;;;4.00;;
11139;SDS011;5624;49.388;11.350;2022-09-24T03:26:10;6.27;;;4.40;;
11139;SDS011;5624;49.388;11.350;2022-09-24T03:28:37;5.87;;;5.37;;
11139;SDS011;5624;49.388;11.350;2022-09-24T03:31:04;7.03;;;4.33;;
11139;SDS011;5624;49.388;11.350;2022-09-24T03:33:42;5.80;;;4.27;;
11139;SDS011;5624;49.388;11.350;2022-09-24T03:36:15;5.63;;;4.80;;
11139;SDS011;5624;49.388;11.350;2022-09-24T03:38:45;6.00;;;4.47;;
11139;SDS011;5624;49.388;11.350;2022-09-24T03:41:14;8.40;;;5.00;;
11139;SDS011;5624;49.388;11.350;2022-09-24T03:43:40;5.23;;;4.23;;
11139;SDS011;5624;49.388;11.350;2022-09-24T03:46:06;7.07;;;5.13;;
11139;SDS011;5624;49.388;11.350;2022-09-24T03:48:35;6.60;;;5.07;;
11139;SDS011;5624;49.388;11.350;2022-09-24T03:51:03;7.67;;;4.93;;
11139;SDS011;5624;49.388;11.350;2022-09-24T03:53:40;6.00;;;4.87;;
11139;SDS011;5624;49.388;11.350;2022-09-24T03:56:07;5.83;;;5.10;;
11139;SDS011;5624;49.388;11.350;2022-09-24T03:58:36;5.13;;;4.40;;
11139;SDS011;5624;49.388;11.350;2022-09-24T04:01:04;6.67;;;4.87;;
11139;SDS011;5624;49.388;11.350;2022-09-24T04:03:32;8.90;;;5.43;;
11139;SDS011;5624;49.388;11.350;2022-09-24T04:06:00;7.20;;;5.27;;
11139;SDS011;5624;49.388;11.350;2022-09-24T04:08:28;5.57;;;4.87;;
11139;SDS011;5624;49.388;11.350;2022-09-24T04:10:55;6.63;;;5.10;;
11139;SDS011;5624;49.388;11.350;2022-09-24T04:13:22;6.53;;;5.17;;
11139;SDS011;5624;49.388;11.350;2022-09-24T04:15:48;8.03;;;5.30;;
11139;SDS011;5624;49.388;11.350;2022-09-24T04:18:16;7.37;;;5.27;;
11139;SDS011;5624;49.388;11.350;2022-09-24T04:20:43;6.20;;;5.60;;
11139;SDS011;5624;49.388;11.350;2022-09-24T04:23:11;5.93;;;5.00;;
11139;SDS011;5624;49.388;11.350;2022-09-24T04:25:37;6.27;;;5.07;;
11139;SDS011;5624;49.388;11.350;2022-09-24T04:28:08;7.17;;;5.70;;
11139;SDS011;5624;49.388;11.350;2022-09-24T04:30:36;7.67;;;5.83;;
11139;SDS011;5624;49.388;11.350;2022-09-24T04:33:03;7.87;;;5.83;;
11139;SDS011;5624;49.388;11.350;2022-09-24T04:35:32;10.07;;;5.47;;
11139;SDS011;5624;49.388;11.350;2022-09-24T04:38:02;5.63;;;4.93;;
11139;SDS011;5624;49.388;11.350;2022-09-24T04:40:29;7.43;;;5.37;;
11139;SDS011;5624;49.388;11.350;2022-09-24T04:42:57;9.33;;;5.23;;
11139;SDS011;5624;49.388;11.350;2022-09-24T04:45:23;6.87;;;5.53;;
11139;SDS011;5624;49.388;11.350;2022-09-24T04:47:51;6.67;;;5.43;;
11139;SDS011;5624;49.388;11.350;2022-09-24T04:50:23;6.30;;;4.80;;
11139;SDS011;5624;49.388;11.350;2022-09-24T04:52:53;6.70;;;5.17;;
11139;SDS011;5624;49.388;11.350;2022-09-24T04:55:21;8.67;;;5.00;;
11139;SDS011;5624;49.388;11.350;2022-09-24T04:57:48;6.83;;;5.67;;
11139;SDS011;5624;49.388;11.350;2022-09-24T05:00:15;6.77;;;4.90;;
11139;SDS011;5624;49.388;11.350;2022-09-24T05:02:44;7.17;;;5.27;;
11139;SDS011;5624;49.388;11.350;2022-09-24T05:05:11;7.07;;;5.20;;
11139;SDS011;5624;49.388;11.350;2022-09-24T05:07:39;7.23;;;5.67;;
11139;SDS011;5624;49.388;11.350;2022-09-24T05:10:05;8.10;;;5.57;;
11139;SDS011;5624;49.388;11.350;2022-09-24T05:12:34;7.93;;;5.67;;
11139;SDS011;5624;49.388;11.350;2022-09-24T05:15:02;7.10;;;5.70;;
11139;SDS011;5624;49.388;11.350;2022-09-24T05:17:28;7.93;;;5.87;;
11139;SDS011;5624;49.388;11.350;2022-09-24T05:19:54;7.33;;;6.13;;
11139;SDS011;5624;49.388;11.350;2022-09-24T05:22:22;6.77;;;6.07;;
11139;SDS011;5624;49.388;11.350;2022-09-24T05:24:51;7.87;;;6.00;;
11139;SDS011;5624;49.388;11.350;2022-09-24T05:27:18;7.50;;;5.10;;
11139;SDS011;5624;49.388;11.350;2022-09-24T05:29:46;8.70;;;5.50;;
11139;SDS011;5624;49.388;11.350;2022-09-24T05:32:13;7.73;;;5.90;;
11139;SDS011;5624;49.388;11.350;2022-09-24T05:34:42;8.03;;;6.80;;
11139;SDS011;5624;49.388;11.350;2022-09-24T05:37:09;7.90;;;6.13;;
11139;SDS011;5624;49.388;11.350;2022-09-24T05:39:36;7.73;;;6.87;;
11139;SDS011;5624;49.388;11.350;2022-09-24T05:42:04;7.00;;;6.20;;
11139;SDS011;5624;49.388;11.350;2022-09-24T05:44:32;8.20;;;6.43;;
11139;SDS011;5624;49.388;11.350;2022-09-24T05:46:58;9.63;;;6.17;;
11139;SDS011;5624;49.388;11.350;2022-09-24T05:49:24;8.27;;;5.83;;
11139;SDS011;5624;49.388;11.350;2022-09-24T05:51:51;7.77;;;6.33;;
11139;SDS011;5624;49.388;11.350;2022-09-24T05:54:19;7.30;;;5.97;;
11139;SDS011;5624;49.388;11.350;2022-09-24T05:56:46;9.47;;;7.20;;
11139;SDS011;5624;49.388;11.350;2022-09-24T05:59:13;8.53;;;5.90;;
11139;SDS011;5624;49.388;11.350;2022-09-24T06:01:39;9.23;;;6.90;;
11139;SDS011;5624;49.388;11.350;2022-09-24T06:04:05;10.93;;;7.83;;
11139;SDS011;5624;49.388;11.350;2022-09-24T06:06:31;9.23;;;7.03;;
11139;SDS011;5624;49.388;11.350;2022-09-24T06:08:58;7.30;;;6.27;;
11139;SDS011;5624;49.388;11.350;2022-09-24T06:11:25;10.10;;;6.63;;
11139;SDS011;5624;49.388;11.350;2022-09-24T06:13:53;8.70;;;6.70;;
11139;SDS011;5624;49.388;11.350;2022-09-24T06:16:20;8.10;;;6.50;;
11139;SDS011;5624;49.388;11.350;2022-09-24T06:18:46;6.90;;;5.87;;
11139;SDS011;5624;49.388;11.350;2022-09-24T06:21:14;8.27;;;6.43;;
11139;SDS011;5624;49.388;11.350;2022-09-24T06:23:44;7.07;;;6.00;;
11139;SDS011;5624;49.388;11.350;2022-09-24T06:26:13;8.77;;;6.03;;
11139;SDS011;5624;49.388;11.350;2022-09-24T06:28:39;8.73;;;5.87;;
11139;SDS011;5624;49.388;11.350;2022-09-24T06:31:06;8.10;;;6.33;;
11139;SDS011;5624;49.388;11.350;2022-09-24T06:33:36;11.50;;;6.43;;
11139;SDS011;5624;49.388;11.350;2022-09-24T06:36:03;10.80;;;6.53;;
11139;SDS011;5624;49.388;11.350;2022-09-24T06:38:29;9.57;;;6.27;;
11139;SDS011;5624;49.388;11.350;2022-09-24T06:40:59;9.40;;;6.23;;
11139;SDS011;5624;49.388;11.350;2022-09-24T06:43:26;8.80;;;6.27;;
11139;SDS011;5624;49.388;11.350;2022-09-24T06:45:54;11.03;;;7.00;;
11139;SDS011;5624;49.388;11.350;2022-09-24T06:48:24;9.30;;;6.07;;
11139;SDS011;5624;49.388;11.350;2022-09-24T06:50:52;8.57;;;5.87;;
11139;SDS011;5624;49.388;11.350;2022-09-24T06:53:21;6.40;;;5.37;;
11139;SDS011;5624;49.388;11.350;2022-09-24T06:55:47;7.97;;;5.40;;
11139;SDS011;5624;49.388;11.350;2022-09-24T06:58:15;7.53;;;5.07;;
11139;SDS011;5624;49.388;11.350;2022-09-24T07:00:49;7.83;;;4.80;;
11139;SDS011;5624;49.388;11.350;2022-09-24T07:03:18;8.68;;;5.20;;
11139;SDS011;5624;49.388;11.350;2022-09-24T07:05:45;5.67;;;4.67;;
11139;SDS011;5624;49.388;11.350;2022-09-24T07:08:12;5.50;;;4.55;;
11139;SDS011;5624;49.388;11.350;2022-09-24T07:10:45;6.72;;;5.00;;
11139;SDS011;5624;49.388;11.350;2022-09-24T07:13:16;8.10;;;4.72;;
11139;SDS011;5624;49.388;11.350;2022-09-24T07:15:42;5.70;;;4.43;;
11139;SDS011;5624;49.388;11.350;2022-09-24T07:18:09;8.13;;;5.03;;
11139;SDS011;5624;49.388;11.350;2022-09-24T07:20:38;4.95;;;4.43;;
11139;SDS011;5624;49.388;11.350;2022-09-24T07:23:05;5.63;;;4.95;;
11139;SDS011;5624;49.388;11.350;2022-09-24T07:25:32;6.43;;;4.70;;
11139;SDS011;5624;49.388;11.350;2022-09-24T07:28:02;7.63;;;4.88;;
11139;SDS011;5624;49.388;11.350;2022-09-24T07:30:31;8.43;;;4.97;;
11139;SDS011;5624;49.388;11.350;2022-09-24T07:32:58;6.43;;;4.97;;
11139;SDS011;5624;49.388;11.350;2022-09-24T07:35:25;8.57;;;5.18;;
11139;SDS011;5624;49.388;11.350;2022-09-24T07:37:57;6.30;;;5.03;;
11139;SDS011;5624;49.388;11.350;2022-09-24T07:40:24;7.43;;;5.97;;
11139;SDS011;5624;49.388;11.350;2022-09-24T07:42:51;8.00;;;5.82;;
11139;SDS011;5624;49.388;11.350;2022-09-24T07:45:19;7.75;;;6.28;;
11139;SDS011;5624;49.388;11.350;2022-09-24T07:47:45;6.32;;;5.57;;
11139;SDS011;5624;49.388;11.350;2022-09-24T07:50:12;7.30;;;6.50;;
11139;SDS011;5624;49.388;11.350;2022-09-24T07:52:38;7.97;;;6.32;;
11139;SDS011;5624;49.388;11.350;2022-09-24T07:55:07;6.93;;;6.03;;
11139;SDS011;5624;49.388;11.350;2022-09-24T07:57:33;8.70;;;7.20;;
11139;SDS011;5624;49.388;11.350;2022-09-24T08:00:01;7.38;;;6.22;;
11139;SDS011;5624;49.388;11.350;2022-09-24T08:02:30;6.53;;;5.82;;
11139;SDS011;5624;49.388;11.350;2022-09-24T08:04:56;7.97;;;6.60;;
11139;SDS011;5624;49.388;11.350;2022-09-24T08:07:22;6.95;;;6.07;;
11139;SDS011;5624;49.388;11.350;2022-09-24T08:09:48;7.85;;;6.47;;
11139;SDS011;5624;49.388;11.350;2022-09-24T08:12:15;7.72;;;6.03;;
11139;SDS011;5624;49.388;11.350;2022-09-24T08:14:42;7.15;;;6.13;;
11139;SDS011;5624;49.388;11.350;2022-09-24T08:17:09;7.63;;;6.28;;
11139;SDS011;5624;49.388;11.350;2022-09-24T08:19:36;7.68;;;6.13;;
11139;SDS011;5624;49.388;11.350;2022-09-24T08:22:03;7.45;;;6.38;;
11139;SDS011;5624;49.388;11.350;2022-09-24T08:24:31;7.60;;;5.93;;
11139;SDS011;5624;49.388;11.350;2022-09-24T08:26:57;7.90;;;6.45;;
11139;SDS011;5624;49.388;11.350;2022-09-24T08:29:24;7.50;;;6.28;;
11139;SDS011;5624;49.388;11.350;2022-09-24T08:31:50;7.55;;;5.88;;
11139;SDS011;5624;49.388;11.350;2022-09-24T08:34:16;7.93;;;5.72;;
11139;SDS011;5624;49.388;11.350;2022-09-24T08:36:42;7.47;;;6.53;;
11139;SDS011;5624;49.388;11.350;2022-09-24T08:39:08;7.40;;;5.97;;
11139;SDS011;5624;49.388;11.350;2022-09-24T08:44:22;6.75;;;6.05;;
11139;SDS011;5624;49.388;11.350;2022-09-24T08:47:19;9.27;;;6.90;;
11139;SDS011;5624;49.388;11.350;2022-09-24T08:55:14;9.52;;;7.60;;
11139;SDS011;5624;49.388;11.350;2022-09-24T08:57:56;9.70;;;7.60;;
11139;SDS011;5624;49.388;11.350;2022-09-24T09:00:42;11.10;;;7.05;;
11139;SDS011;5624;49.388;11.350;2022-09-24T09:08:43;7.07;;;6.32;;
11139;SDS011;5624;49.388;11.350;2022-09-24T09:11:27;9.40;;;7.22;;
11139;SDS011;5624;49.388;11.350;2022-09-24T09:14:01;6.60;;;5.90;;
11139;SDS011;5624;49.388;11.350;2022-09-24T09:19:15;6.88;;;6.18;;
11139;SDS011;5624;49.388;11.350;2022-09-24T09:21:47;7.25;;;6.47;;
11139;SDS011;5624;49.388;11.350;2022-09-24T09:24:25;7.50;;;6.03;;
11139;SDS011;5624;49.388;11.350;2022-09-24T09:27:13;8.50;;;6.15;;
11139;SDS011;5624;49.388;11.350;2022-09-24T09:29:49;9.10;;;7.25;;
11139;SDS011;5624;49.388;11.350;2022-09-24T09:35:23;9.45;;;7.13;;
11139;SDS011;5624;49.388;11.350;2022-09-24T09:43:10;8.27;;;6.20;;
11139;SDS011;5624;49.388;11.350;2022-09-24T09:48:28;7.05;;;6.22;;
11139;SDS011;5624;49.388;11.350;2022-09-24T09:51:07;7.68;;;6.65;;
11139;SDS011;5624;49.388;11.350;2022-09-24T09:53:51;6.88;;;6.18;;
11139;SDS011;5624;49.388;11.350;2022-09-24T09:56:21;9.48;;;6.78;;
11139;SDS011;5624;49.388;11.350;2022-09-24T09:58:48;8.25;;;6.60;;
11139;SDS011;5624;49.388;11.350;2022-09-24T10:01:20;10.43;;;7.15;;
11139;SDS011;5624;49.388;11.350;2022-09-24T10:03:58;7.70;;;6.50;;
11139;SDS011;5624;49.388;11.350;2022-09-24T10:06:31;7.68;;;6.85;;
11139;SDS011;5624;49.388;11.350;2022-09-24T10:09:14;6.90;;;6.05;;
11139;SDS011;5624;49.388;11.350;2022-09-24T10:11:41;6.93;;;6.13;;
11139;SDS011;5624;49.388;11.350;2022-09-24T10:14:09;7.30;;;6.55;;
11139;SDS011;5624;49.388;11.350;2022-09-24T10:16:47;7.93;;;7.05;;
11139;SDS011;5624;49.388;11.350;2022-09-24T10:19:19;8.90;;;6.93;;
11139;SDS011;5624;49.388;11.350;2022-09-24T10:21:49;9.13;;;6.90;;
11139;SDS011;5624;49.388;11.350;2022-09-24T10:24:19;9.88;;;7.63;;
11139;SDS011;5624;49.388;11.350;2022-09-24T10:26:47;7.72;;;6.93;;
11139;SDS011;5624;49.388;11.350;2022-09-24T10:29:18;6.97;;;6.28;;
11139;SDS011;5624;49.388;11.350;2022-09-24T10:32:20;7.65;;;6.38;;
11139;SDS011;5624;49.388;11.350;2022-09-24T10:35:48;9.68;;;7.13;;
11139;SDS011;5624;49.388;11.350;2022-09-24T10:37:51;9.45;;;7.40;;
11139;SDS011;5624;49.388;11.350;2022-09-24T10:40:19;7.85;;;6.07;;
11139;SDS011;5624;49.388;11.350;2022-09-24T10:43:22;8.52;;;6.82;;
11139;SDS011;5624;49.388;11.350;2022-09-24T10:48:34;11.10;;;6.75;;
11139;SDS011;5624;49.388;11.350;2022-09-24T10:53:54;7.47;;;6.25;;
11139;SDS011;5624;49.388;11.350;2022-09-24T10:56:37;14.13;;;7.40;;
11139;SDS011;5624;49.388;11.350;2022-09-24T11:21:54;9.05;;;6.63;;
11139;SDS011;5624;49.388;11.350;2022-09-24T11:30:19;7.03;;;5.70;;
11139;SDS011;5624;49.388;11.350;2022-09-24T11:36:07;8.48;;;6.75;;
11139;SDS011;5624;49.388;11.350;2022-09-24T11:41:25;7.35;;;5.88;;
11139;SDS011;5624;49.388;11.350;2022-09-24T11:57:37;7.15;;;6.45;;
11139;SDS011;5624;49.388;11.350;2022-09-24T12:00:11;8.00;;;6.03;;
11139;SDS011;5624;49.388;11.350;2022-09-24T12:02:42;6.88;;;5.97;;
11139;SDS011;5624;49.388;11.350;2022-09-24T12:05:16;7.53;;;6.20;;
11139;SDS011;5624;49.388;11.350;2022-09-24T12:08:10;6.78;;;5.53;;
11139;SDS011;5624;49.388;11.350;2022-09-24T12:16:07;8.57;;;6.60;;
11139;SDS011;5624;49.388;11.350;2022-09-24T12:21:16;7.57;;;5.47;;
11139;SDS011;5624;49.388;11.350;2022-09-24T12:23:46;8.18;;;6.20;;
11139;SDS011;5624;49.388;11.350;2022-09-24T12:26:15;7.07;;;5.25;;
11139;SDS011;5624;49.388;11.350;2022-09-24T12:28:57;7.65;;;6.28;;
11139;SDS011;5624;49.388;11.350;2022-09-24T12:32:16;7.03;;;5.40;;
11139;SDS011;5624;49.388;11.350;2022-09-24T12:37:37;9.43;;;6.63;;
11139;SDS011;5624;49.388;11.350;2022-09-24T12:42:39;8.07;;;6.07;;
11139;SDS011;5624;49.388;11.350;2022-09-24T12:45:12;7.32;;;6.13;;
11139;SDS011;5624;49.388;11.350;2022-09-24T12:47:45;5.18;;;4.50;;
11139;SDS011;5624;49.388;11.350;2022-09-24T12:50:19;7.45;;;4.65;;
11139;SDS011;5624;49.388;11.350;2022-09-24T12:52:48;9.82;;;5.25;;
11139;SDS011;5624;49.388;11.350;2022-09-24T12:57:50;6.25;;;4.97;;
11139;SDS011;5624;49.388;11.350;2022-09-24T13:00:35;7.80;;;5.40;;
11139;SDS011;5624;49.388;11.350;2022-09-24T13:05:54;5.95;;;5.10;;
11139;SDS011;5624;49.388;11.350;2022-09-24T13:08:24;7.82;;;4.90;;
11139;SDS011;5624;49.388;11.350;2022-09-24T13:11:02;6.75;;;5.13;;
11139;SDS011;5624;49.388;11.350;2022-09-24T13:13:56;9.18;;;5.13;;
11139;SDS011;5624;49.388;11.350;2022-09-24T13:16:38;7.20;;;5.72;;
11139;SDS011;5624;49.388;11.350;2022-09-24T13:19:54;7.07;;;5.13;;
11139;SDS011;5624;49.388;11.350;2022-09-24T13:21:56;7.85;;;5.10;;
11139;SDS011;5624;49.388;11.350;2022-09-24T13:24:27;6.47;;;4.93;;
11139;SDS011;5624;49.388;11.350;2022-09-24T13:27:16;5.45;;;4.95;;
11139;SDS011;5624;49.388;11.350;2022-09-24T13:29:45;6.65;;;4.93;;
11139;SDS011;5624;49.388;11.350;2022-09-24T13:32:14;6.63;;;4.72;;
11139;SDS011;5624;49.388;11.350;2022-09-24T13:34:45;6.35;;;4.60;;
11139;SDS011;5624;49.388;11.350;2022-09-24T13:37:19;8.88;;;5.40;;
11139;SDS011;5624;49.388;11.350;2022-09-24T13:40:05;6.50;;;4.05;;
11139;SDS011;5624;49.388;11.350;2022-09-24T13:45:21;4.90;;;3.88;;
11139;SDS011;5624;49.388;11.350;2022-09-24T13:47:56;4.88;;;4.07;;
11139;SDS011;5624;49.388;11.350;2022-09-24T13:50:37;5.80;;;4.80;;
11139;SDS011;5624;49.388;11.350;2022-09-24T13:53:17;6.65;;;4.80;;
11139;SDS011;5624;49.388;11.350;2022-09-24T13:55:53;6.00;;;4.70;;
11139;SDS011;5624;49.388;11.350;2022-09-24T14:00:57;6.57;;;4.20;;
11139;SDS011;5624;49.388;11.350;2022-09-24T14:03:30;6.43;;;4.45;;
11139;SDS011;5624;49.388;11.350;2022-09-24T14:06:07;8.48;;;4.13;;
11139;SDS011;5624;49.388;11.350;2022-09-24T14:08:36;5.75;;;4.53;;
11139;SDS011;5624;49.388;11.350;2022-09-24T14:11:20;5.05;;;4.32;;
11139;SDS011;5624;49.388;11.350;2022-09-24T14:13:51;5.93;;;4.65;;
11139;SDS011;5624;49.388;11.350;2022-09-24T14:16:22;5.55;;;4.30;;
11139;SDS011;5624;49.388;11.350;2022-09-24T14:19:03;6.32;;;4.82;;
11139;SDS011;5624;49.388;11.350;2022-09-24T14:24:06;6.82;;;6.10;;
11139;SDS011;5624;49.388;11.350;2022-09-24T14:26:52;7.30;;;5.20;;
11139;SDS011;5624;49.388;11.350;2022-09-24T14:29:32;8.68;;;5.55;;
11139;SDS011;5624;49.388;11.350;2022-09-24T14:32:21;6.25;;;5.15;;
11139;SDS011;5624;49.388;11.350;2022-09-24T14:34:57;8.32;;;5.95;;
11139;SDS011;5624;49.388;11.350;2022-09-24T14:38:01;12.27;;;10.45;;
11139;SDS011;5624;49.388;11.350;2022-09-24T14:40:42;9.77;;;7.30;;
11139;SDS011;5624;49.388;11.350;2022-09-24T14:43:57;8.77;;;7.38;;
11139;SDS011;5624;49.388;11.350;2022-09-24T14:49:04;7.03;;;5.93;;
11139;SDS011;5624;49.388;11.350;2022-09-24T14:56:52;9.02;;;6.40;;
11139;SDS011;5624;49.388;11.350;2022-09-24T14:59:29;8.57;;;6.57;;
11139;SDS011;5624;49.388;11.350;2022-09-24T15:02:11;8.95;;;6.60;;
11139;SDS011;5624;49.388;11.350;2022-09-24T15:05:01;9.13;;;7.10;;
11139;SDS011;5624;49.388;11.350;2022-09-24T15:07:29;8.05;;;7.25;;
11139;SDS011;5624;49.388;11.350;2022-09-24T15:09:58;11.02;;;7.45;;
11139;SDS011;5624;49.388;11.350;2022-09-24T15:12:31;8.90;;;7.65;;
11139;SDS011;5624;49.388;11.350;2022-09-24T15:15:03;12.23;;;9.68;;
11139;SDS011;5624;49.388;11.350;2022-09-24T15:17:50;20.27;;;15.90;;
11139;SDS011;5624;49.388;11.350;2022-09-24T15:20:16;13.63;;;10.82;;
11139;SDS011;5624;49.388;11.350;2022-09-24T15:22:41;15.07;;;12.10;;
11139;SDS011;5624;49.388;11.350;2022-09-24T15:25:12;23.42;;;18.13;;
11139;SDS011;5624;49.388;11.350;2022-09-24T15:27:40;16.65;;;13.07;;
11139;SDS011;5624;49.388;11.350;2022-09-24T15:30:09;14.32;;;11.73;;
11139;SDS011;5624;49.388;11.350;2022-09-24T15:32:38;12.18;;;10.73;;
11139;SDS011;5624;49.388;11.350;2022-09-24T15:35:04;14.68;;;11.10;;
11139;SDS011;5624;49.388;11.350;2022-09-24T15:37:33;12.80;;;10.27;;
11139;SDS011;5624;49.388;11.350;2022-09-24T15:40:08;16.10;;;12.70;;
11139;SDS011;5624;49.388;11.350;2022-09-24T15:42:41;10.60;;;9.50;;
11139;SDS011;5624;49.388;11.350;2022-09-24T15:45:20;14.05;;;10.88;;
11139;SDS011;5624;49.388;11.350;2022-09-24T15:47:48;13.95;;;10.30;;
11139;SDS011;5624;49.388;11.350;2022-09-24T15:50:15;12.80;;;10.70;;
11139;SDS011;5624;49.388;11.350;2022-09-24T15:52:47;12.07;;;10.77;;
11139;SDS011;5624;49.388;11.350;2022-09-24T15:55:18;14.10;;;10.93;;
11139;SDS011;5624;49.388;11.350;2022-09-24T15:57:48;18.27;;;14.00;;
11139;SDS011;5624;49.388;11.350;2022-09-24T16:00:16;14.50;;;12.23;;
11139;SDS011;5624;49.388;11.350;2022-09-24T16:02:46;15.20;;;13.55;;
11139;SDS011;5624;49.388;11.350;2022-09-24T16:05:20;19.27;;;12.43;;
11139;SDS011;5624;49.388;11.350;2022-09-24T16:07:47;17.63;;;13.43;;
11139;SDS011;5624;49.388;11.350;2022-09-24T16:10:14;17.52;;;13.73;;
11139;SDS011;5624;49.388;11.350;2022-09-24T16:12:41;18.65;;;13.93;;
11139;SDS011;5624;49.388;11.350;2022-09-24T16:15:12;18.95;;;13.85;;
11139;SDS011;5624;49.388;11.350;2022-09-24T16:17:39;23.17;;;16.20;;
11139;SDS011;5624;49.388;11.350;2022-09-24T16:20:06;15.95;;;13.30;;
11139;SDS011;5624;49.388;11.350;2022-09-24T16:22:34;15.63;;;12.93;;
11139;SDS011;5624;49.388;11.350;2022-09-24T16:25:02;13.50;;;12.10;;
11139;SDS011;5624;49.388;11.350;2022-09-24T16:27:30;17.77;;;13.52;;
11139;SDS011;5624;49.388;11.350;2022-09-24T16:29:58;14.43;;;12.93;;
11139;SDS011;5624;49.388;11.350;2022-09-24T16:32:25;17.25;;;14.40;;
11139;SDS011;5624;49.388;11.350;2022-09-24T16:34:52;19.17;;;14.73;;
11139;SDS011;5624;49.388;11.350;2022-09-24T16:37:23;15.25;;;13.65;;
11139;SDS011;5624;49.388;11.350;2022-09-24T16:39:50;19.73;;;14.60;;
11139;SDS011;5624;49.388;11.350;2022-09-24T16:42:17;18.75;;;14.20;;
11139;SDS011;5624;49.388;11.350;2022-09-24T16:44:43;19.38;;;14.23;;
11139;SDS011;5624;49.388;11.350;2022-09-24T16:47:10;14.70;;;13.10;;
11139;SDS011;5624;49.388;11.350;2022-09-24T16:49:40;15.60;;;13.90;;
11139;SDS011;5624;49.388;11.350;2022-09-24T16:52:07;18.60;;;13.75;;
11139;SDS011;5624;49.388;11.350;2022-09-24T16:54:36;16.80;;;13.03;;
11139;SDS011;5624;49.388;11.350;2022-09-24T16:57:03;17.87;;;14.80;;
11139;SDS011;5624;49.388;11.350;2022-09-24T16:59:32;15.93;;;13.53;;
11139;SDS011;5624;49.388;11.350;2022-09-24T17:01:59;18.30;;;14.30;;
11139;SDS011;5624;49.388;11.350;2022-09-24T17:04:27;15.00;;;13.40;;
11139;SDS011;5624;49.388;11.350;2022-09-24T17:06:54;17.80;;;14.20;;
11139;SDS011;5624;49.388;11.350;2022-09-24T17:09:22;19.60;;;13.50;;
11139;SDS011;5624;49.388;11.350;2022-09-24T17:12:08;19.27;;;14.10;;
11139;SDS011;5624;49.388;11.350;2022-09-24T17:14:36;21.83;;;17.20;;
11139;SDS011;5624;49.388;11.350;2022-09-24T17:17:02;19.80;;;15.87;;
11139;SDS011;5624;49.388;11.350;2022-09-24T17:19:29;21.10;;;14.77;;
11139;SDS011;5624;49.388;11.350;2022-09-24T17:21:56;20.37;;;17.20;;
11139;SDS011;5624;49.388;11.350;2022-09-24T17:24:23;18.07;;;16.10;;